Time;durP1;ratioP1;P1;durP2;ratioP2;P2;SDS_P1;SDS_P2;PMS_P1;PMS_P2;Temp;Humidity;BMP_temperature;BMP_pressure;BME280_temperature;BME280_humidity;BME280_pressure;Samples;Min_cycle;Max_cycle;Signal;HPM_P1;HPM_P2
2023/05/18 00:01:04;;;;;;;8.70;2.63;;;8.20;92.50;;;7.68;60.50;102164.66;5014515;28;20318;-74
2023/05/18 00:03:38;;;;;;;7.30;2.77;;;8.10;92.50;;;7.56;61.10;102171.72;5014882;28;20227;-74
2023/05/18 00:06:12;;;;;;;7.23;2.70;;;8.10;92.70;;;7.53;60.73;102171.94;5014799;28;20191;-74
2023/05/18 00:08:46;;;;;;;9.70;2.87;;;8.10;92.70;;;7.43;61.49;102166.34;5014808;28;20282;-74
2023/05/18 00:11:20;;;;;;;7.53;2.73;;;7.90;93.10;;;7.42;61.26;102164.66;5014675;28;20227;-74
2023/05/18 00:13:53;;;;;;;8.43;2.80;;;7.90;93.00;;;7.35;61.82;102163.38;5014336;28;20198;-74
2023/05/18 00:16:27;;;;;;;7.23;2.77;;;7.90;93.10;;;7.33;61.47;102161.78;5014258;28;20226;-75
2023/05/18 00:19:01;;;;;;;4.63;2.27;;;7.90;93.00;;;7.38;61.48;102163.16;5014823;28;20250;-74
2023/05/18 00:21:35;;;;;;;9.57;3.10;;;7.90;93.10;;;7.29;61.75;102169.13;5022505;28;20226;-73
2023/05/18 00:24:10;;;;;;;8.10;3.10;;;7.90;93.00;;;7.24;61.57;102165.91;5026734;28;20194;-74
2023/05/18 00:26:45;;;;;;;10.77;3.03;;;7.80;93.00;;;7.21;61.83;102168.78;5025192;28;20219;-74
2023/05/18 00:29:19;;;;;;;6.40;2.60;;;7.70;93.40;;;7.23;61.81;102164.19;5023337;28;20238;-74
2023/05/18 00:31:52;;;;;;;5.57;3.00;;;7.70;93.20;;;7.23;61.87;102174.84;5015212;28;20227;-75
2023/05/18 00:34:26;;;;;;;7.83;2.80;;;7.80;93.40;;;7.25;61.90;102170.28;5014456;28;20294;-75
2023/05/18 00:36:59;;;;;;;8.40;2.67;;;7.80;93.40;;;7.10;61.92;102166.00;5015686;28;20593;-75
2023/05/18 00:39:33;;;;;;;6.03;2.67;;;7.60;93.40;;;7.09;61.77;102172.25;5014953;28;20193;-75
2023/05/18 00:42:07;;;;;;;8.27;2.50;;;7.50;93.70;;;7.07;61.86;102163.53;5015044;28;20266;-75
2023/05/18 00:44:40;;;;;;;8.70;2.57;;;7.60;93.50;;;7.00;61.97;102172.91;5014258;28;20222;-75
2023/05/18 00:47:14;;;;;;;7.97;2.80;;;7.50;93.60;;;6.97;62.06;102168.63;5014095;28;20191;-75
2023/05/18 00:49:47;;;;;;;5.73;2.83;;;7.50;93.80;;;6.87;62.60;102172.00;5014149;28;20275;-74
2023/05/18 00:52:22;;;;;;;7.73;3.03;;;7.30;93.90;;;6.87;62.28;102174.66;5014033;28;20246;-75
2023/05/18 00:54:58;;;;;;;8.53;2.83;;;7.40;93.90;;;6.77;62.70;102177.09;5014145;28;20231;-75
2023/05/18 00:57:32;;;;;;;11.37;3.17;;;7.20;94.00;;;6.77;62.60;102171.78;5013961;28;20262;-75
2023/05/18 01:00:09;;;;;;;6.80;2.83;;;7.30;94.20;;;6.65;62.93;102175.22;5013922;28;20266;-75
2023/05/18 01:02:45;;;;;;;6.80;2.67;;;7.10;94.00;;;6.66;63.06;102174.28;5013898;28;20275;-75
2023/05/18 01:05:20;;;;;;;7.27;2.70;;;7.20;94.30;;;6.63;63.36;102180.66;5013917;28;20354;-75
2023/05/18 01:07:56;;;;;;;7.53;2.80;;;7.20;94.30;;;6.59;63.40;102181.81;5013539;28;20632;-75
2023/05/18 01:10:32;;;;;;;9.97;2.67;;;7.10;94.50;;;6.61;63.09;102181.69;5014032;28;20242;-75
2023/05/18 01:13:15;;;;;;;10.20;2.90;;;7.20;94.20;;;6.46;63.31;102178.25;5013798;28;20607;-75
2023/05/18 01:15:57;;;;;;;11.13;2.97;;;7.10;94.20;;;6.51;63.54;102178.78;5013558;28;20652;-74
2023/05/18 01:18:38;;;;;;;5.33;2.57;;;7.00;94.40;;;6.46;63.69;102178.25;5013338;28;20751;-75
2023/05/18 01:21:30;;;;;;;6.93;3.03;;;7.00;94.80;;;6.37;63.79;102186.78;5013642;28;20231;-74
2023/05/18 01:24:25;;;;;;;8.57;3.10;;;6.90;94.70;;;6.35;64.23;102185.19;5014763;28;20302;-73
2023/05/18 01:27:03;;;;;;;9.37;3.30;;;6.80;94.80;;;6.36;64.12;102171.81;5013634;28;20312;-74
2023/05/18 01:29:38;;;;;;;8.00;3.13;;;6.90;95.00;;;6.31;64.04;102184.53;5013662;28;20218;-75
2023/05/18 01:32:20;;;;;;;12.10;3.10;;;6.80;95.00;;;6.34;64.24;102188.78;5015160;28;20288;-75
2023/05/18 01:34:53;;;;;;;7.70;2.60;;;6.90;95.20;;;6.34;64.32;102183.47;5017558;28;20192;-75
2023/05/18 01:37:27;;;;;;;8.27;2.97;;;6.90;95.20;;;6.26;64.36;102186.63;5017447;28;20224;-76
2023/05/18 01:40:00;;;;;;;7.00;2.67;;;6.80;95.20;;;6.30;63.74;102187.31;5017425;28;20191;-75
2023/05/18 01:42:39;;;;;;;6.23;2.60;;;6.90;95.30;;;6.12;64.44;102186.66;5017493;28;20188;-75
2023/05/18 01:45:27;;;;;;;9.00;3.27;;;6.70;95.00;;;6.08;64.83;102182.47;5017369;28;20198;-75
2023/05/18 01:48:04;;;;;;;8.03;3.03;;;6.70;95.30;;;5.95;64.76;102186.84;5017249;28;20203;-75
2023/05/18 01:50:47;;;;;;;8.30;3.40;;;6.50;95.70;;;5.99;65.25;102183.06;5016859;28;20226;-75
2023/05/18 01:53:31;;;;;;;7.90;3.27;;;6.50;96.00;;;6.00;65.29;102190.06;5017149;28;20191;-75
2023/05/18 01:56:08;;;;;;;7.40;2.90;;;6.60;95.80;;;5.99;65.21;102196.34;5017113;28;20274;-75
2023/05/18 01:58:43;;;;;;;10.27;3.43;;;6.50;95.80;;;5.90;65.69;102195.09;5016775;28;20706;-75
2023/05/18 02:01:18;;;;;;;7.60;3.20;;;6.40;96.10;;;5.95;64.88;102193.03;5016998;28;20222;-76
2023/05/18 02:03:52;;;;;;;7.67;3.20;;;6.50;95.70;;;5.86;65.04;102187.41;5016932;28;20195;-75
2023/05/18 02:06:27;;;;;;;9.07;3.63;;;6.50;95.90;;;5.74;66.13;102199.63;5017007;28;20283;-75
2023/05/18 02:09:00;;;;;;;7.07;3.10;;;6.30;96.10;;;5.80;65.78;102198.38;5017077;28;20187;-75
2023/05/18 02:11:33;;;;;;;10.27;3.63;;;6.40;96.00;;;5.78;66.39;102197.66;5016822;28;20314;-75
2023/05/18 02:14:06;;;;;;;6.30;2.90;;;6.30;96.30;;;5.76;65.89;102195.06;5016615;28;20677;-74
2023/05/18 02:16:40;;;;;;;8.03;3.23;;;6.30;96.30;;;5.68;66.65;102194.69;5017443;28;20203;-75
2023/05/18 02:19:14;;;;;;;9.30;3.43;;;6.30;96.30;;;5.72;66.00;102195.38;5016621;28;20271;-75
2023/05/18 02:21:48;;;;;;;6.60;2.90;;;6.30;96.30;;;5.65;65.95;102196.69;5016888;28;20227;-75
2023/05/18 02:24:21;;;;;;;6.27;3.20;;;6.30;96.20;;;5.68;66.05;102193.84;5016728;28;20199;-75
2023/05/18 02:26:55;;;;;;;10.93;3.20;;;6.20;96.40;;;5.67;65.83;102190.31;5016404;28;20595;-75
2023/05/18 02:29:29;;;;;;;7.47;3.10;;;6.30;96.30;;;5.60;65.94;102181.88;5018428;28;20302;-74
2023/05/18 02:32:03;;;;;;;6.73;3.20;;;6.20;96.30;;;5.60;65.71;102184.53;5021246;28;20222;-75
2023/05/18 02:34:40;;;;;;;7.73;3.27;;;6.20;96.30;;;5.48;66.58;102192.41;5019262;28;20220;-75
2023/05/18 02:37:14;;;;;;;7.07;3.37;;;6.10;96.40;;;5.46;66.83;102197.78;5017787;28;20604;-74
2023/05/18 02:39:48;;;;;;;8.57;3.47;;;6.10;96.30;;;5.53;66.05;102196.47;5016005;28;20287;-74
2023/05/18 02:42:21;;;;;;;9.87;2.93;;;6.10;96.40;;;5.46;66.86;102195.13;5016025;28;20283;-75
2023/05/18 02:44:55;;;;;;;8.10;3.13;;;6.00;96.40;;;5.40;67.12;102190.19;5015579;28;20289;-75
2023/05/18 02:47:28;;;;;;;10.07;3.13;;;6.00;96.60;;;5.34;67.31;102190.53;5016240;28;20219;-75
2023/05/18 02:50:02;;;;;;;6.30;2.57;;;5.90;96.90;;;5.36;66.33;102198.44;5016017;28;20291;-75
2023/05/18 02:52:35;;;;;;;7.23;3.40;;;6.00;96.50;;;5.40;65.99;102197.31;5016115;28;20188;-75
2023/05/18 02:55:12;;;;;;;7.57;3.23;;;6.00;96.60;;;5.30;66.94;102199.66;5015803;28;20284;-75
2023/05/18 02:57:46;;;;;;;9.13;3.43;;;5.90;96.50;;;5.24;67.69;102201.81;5015943;28;20211;-75
2023/05/18 03:00:22;;;;;;;9.63;3.10;;;5.80;97.10;;;5.32;66.76;102202.22;5015878;28;20258;-75
2023/05/18 03:02:59;;;;;;;6.73;3.00;;;5.90;96.90;;;5.32;66.72;102203.06;5015953;28;20226;-75
2023/05/18 03:05:32;;;;;;;10.17;3.13;;;5.90;96.70;;;5.28;66.80;102200.66;5015527;28;20282;-75
2023/05/18 03:08:06;;;;;;;5.83;2.73;;;5.90;96.80;;;5.27;66.97;102199.84;5015841;28;20188;-75
2023/05/18 03:10:39;;;;;;;7.93;2.90;;;5.90;96.70;;;5.23;66.53;102197.44;5015723;28;20227;-75
2023/05/18 03:13:13;;;;;;;9.57;3.47;;;5.90;96.70;;;5.11;66.84;102206.97;5018382;28;20192;-74
2023/05/18 03:15:46;;;;;;;8.23;3.30;;;5.80;96.70;;;5.16;66.97;102206.72;5023052;28;20230;-74
2023/05/18 03:18:20;;;;;;;7.60;3.30;;;5.80;97.00;;;5.07;67.22;102211.59;5018772;28;20212;-74
2023/05/18 03:20:53;;;;;;;6.77;2.90;;;5.70;96.80;;;5.12;67.05;102208.69;5019043;28;20315;-74
2023/05/18 03:23:27;;;;;;;7.13;3.13;;;5.70;96.90;;;5.08;66.92;102208.03;5019069;28;20226;-74
2023/05/18 03:26:02;;;;;;;9.53;3.33;;;5.70;97.10;;;5.09;67.23;102206.22;5019314;28;20188;-75
2023/05/18 03:28:36;;;;;;;5.90;3.10;;;5.70;96.90;;;5.04;67.22;102209.13;5015429;28;20191;-76
2023/05/18 03:31:09;;;;;;;11.50;3.20;;;5.70;97.10;;;5.01;67.43;102211.13;5016136;28;20259;-75
2023/05/18 03:33:43;;;;;;;6.47;3.00;;;5.60;97.20;;;5.02;67.31;102204.88;5015012;28;20215;-75
2023/05/18 03:36:16;;;;;;;6.83;2.90;;;5.70;97.30;;;5.00;67.53;102217.38;5015358;28;20282;-74
2023/05/18 03:38:50;;;;;;;8.30;3.33;;;5.60;97.30;;;4.93;67.77;102213.38;5014937;28;20306;-76
2023/05/18 03:41:23;;;;;;;7.67;3.17;;;5.60;97.10;;;4.96;67.67;102221.16;5018803;28;20278;-75
2023/05/18 03:43:57;;;;;;;9.97;3.20;;;5.60;97.40;;;4.91;68.02;102212.59;5018635;28;20648;-75
2023/05/18 03:46:30;;;;;;;7.30;3.10;;;5.60;97.30;;;4.85;68.69;102224.44;5016987;28;20542;-75
2023/05/18 03:49:06;;;;;;;10.03;3.63;;;5.50;98.20;;;4.89;68.26;102219.78;5017522;28;20205;-75
2023/05/18 03:51:40;;;;;;;7.60;3.13;;;5.50;97.70;;;4.90;68.24;102216.19;5016034;28;20227;-75
2023/05/18 03:54:14;;;;;;;8.43;3.10;;;5.60;97.40;;;4.91;68.08;102217.91;5017456;28;20658;-75
2023/05/18 03:56:48;;;;;;;7.70;3.40;;;5.50;97.70;;;4.79;69.53;102215.97;5014042;28;20219;-75
2023/05/18 03:59:21;;;;;;;6.07;3.50;;;5.40;97.80;;;4.76;69.25;102214.31;5014810;28;20216;-75
2023/05/18 04:01:54;;;;;;;6.00;3.13;;;5.40;97.80;;;4.81;68.64;102219.38;5014711;28;20322;-75
2023/05/18 04:04:29;;;;;;;6.57;3.20;;;5.50;98.00;;;4.77;68.31;102220.47;5014988;28;20195;-75
2023/05/18 04:07:04;;;;;;;8.97;3.40;;;5.50;97.90;;;4.72;68.62;102223.41;5014891;28;20195;-74
2023/05/18 04:09:39;;;;;;;6.67;3.37;;;5.40;98.00;;;4.69;68.11;102228.03;5015141;28;20187;-75
2023/05/18 04:12:13;;;;;;;5.60;3.40;;;5.30;98.00;;;4.76;68.37;102218.78;5014966;28;20259;-75
2023/05/18 04:14:48;;;;;;;8.50;3.53;;;5.50;98.00;;;4.77;69.20;102233.75;5015202;28;20619;-75
2023/05/18 04:17:24;;;;;;;5.80;3.60;;;5.40;98.30;;;4.79;69.73;102231.88;5014399;28;20662;-75
2023/05/18 04:19:58;;;;;;;6.43;3.60;;;5.40;98.40;;;4.85;69.38;102234.19;5014323;28;20216;-76
2023/05/18 04:22:32;;;;;;;6.77;3.47;;;5.50;98.20;;;4.89;69.14;102233.06;5014699;28;20223;-75
2023/05/18 04:25:06;;;;;;;8.63;3.33;;;5.60;98.20;;;4.93;69.54;102229.31;5014517;28;20191;-75
2023/05/18 04:27:40;;;;;;;8.97;3.87;;;5.60;98.30;;;4.98;70.18;102237.84;5014701;28;20218;-75
2023/05/18 04:30:17;;;;;;;9.30;4.33;;;5.70;98.50;;;4.99;70.50;102242.22;5014442;28;20310;-75
2023/05/18 04:32:53;;;;;;;8.57;3.87;;;5.70;98.50;;;4.98;70.19;102248.44;5014631;28;20256;-75
2023/05/18 04:35:27;;;;;;;8.60;4.10;;;5.70;98.60;;;4.92;71.16;102238.19;5014460;28;20213;-75
2023/05/18 04:38:01;;;;;;;6.83;3.60;;;5.60;98.90;;;4.89;71.10;102241.88;5014115;28;20222;-76
2023/05/18 04:40:36;;;;;;;9.77;3.40;;;5.60;99.00;;;4.88;71.22;102249.91;5013871;28;20314;-75
2023/05/18 04:43:10;;;;;;;8.30;3.90;;;5.60;99.20;;;4.85;71.88;102258.06;5014588;28;20196;-74
2023/05/18 04:45:45;;;;;;;9.20;3.80;;;5.50;99.30;;;4.90;71.64;102253.34;5013996;28;20565;-75
2023/05/18 04:48:18;;;;;;;10.47;4.13;;;5.60;99.20;;;4.94;71.72;102244.25;5014367;28;20195;-75
2023/05/18 04:50:53;;;;;;;6.73;3.90;;;5.70;99.20;;;4.95;71.86;102256.59;5013949;28;20222;-75
2023/05/18 04:53:27;;;;;;;9.77;3.40;;;5.70;99.20;;;4.98;71.12;102256.41;5014129;28;20187;-75
2023/05/18 04:56:02;;;;;;;9.17;3.80;;;5.70;99.10;;;5.04;71.42;102259.56;5013975;28;20242;-75
2023/05/18 04:58:36;;;;;;;7.63;3.77;;;5.80;99.10;;;5.02;71.41;102255.31;5013956;28;20187;-75
2023/05/18 05:01:10;;;;;;;8.97;3.90;;;5.80;99.20;;;4.97;71.96;102249.38;5013626;28;20229;-75
2023/05/18 05:03:43;;;;;;;8.60;4.03;;;5.70;99.40;;;4.98;71.63;102251.97;5013902;28;20195;-75
2023/05/18 05:06:17;;;;;;;8.73;4.00;;;5.80;99.20;;;4.96;71.92;102255.66;5013860;28;20188;-75
2023/05/18 05:08:51;;;;;;;12.37;3.83;;;5.70;99.30;;;4.93;72.16;102248.72;5014009;28;20188;-75
2023/05/18 05:11:24;;;;;;;10.27;3.80;;;5.70;99.30;;;4.93;72.13;102263.81;5013501;28;20228;-75
2023/05/18 05:13:58;;;;;;;12.90;3.90;;;5.60;99.60;;;4.98;72.33;102261.72;5013963;28;20191;-75
2023/05/18 05:16:32;;;;;;;11.97;3.90;;;5.70;99.90;;;5.00;73.20;102255.38;5013606;28;20660;-75
2023/05/18 05:19:05;;;;;;;9.30;4.20;;;5.80;99.90;;;5.05;73.07;102263.09;5013784;28;20578;-74
2023/05/18 05:21:40;;;;;;;9.83;3.90;;;5.80;99.90;;;5.06;73.42;102270.13;5013875;28;20314;-74
2023/05/18 05:24:13;;;;;;;9.50;4.07;;;5.80;99.90;;;5.09;73.54;102264.63;5013784;28;20523;-74
2023/05/18 05:26:47;;;;;;;9.50;4.20;;;5.90;99.90;;;5.10;74.20;102263.69;5013806;28;20199;-74
2023/05/18 05:29:21;;;;;;;15.23;4.30;;;5.90;99.90;;;5.14;74.50;102267.84;5013561;28;20239;-74
2023/05/18 05:31:54;;;;;;;16.20;4.93;;;5.90;99.90;;;5.15;74.88;102269.56;5013532;28;20227;-74
2023/05/18 05:34:28;;;;;;;11.43;4.47;;;5.90;99.90;;;5.20;74.95;102272.84;5013619;28;20215;-74
2023/05/18 05:37:02;;;;;;;15.67;5.30;;;6.00;99.90;;;5.26;74.99;102277.78;5013767;28;20192;-74
2023/05/18 05:39:36;;;;;;;13.53;4.73;;;6.10;99.90;;;5.31;75.17;102275.69;5013667;28;20212;-74
2023/05/18 05:42:10;;;;;;;11.10;4.47;;;6.10;99.90;;;5.36;74.70;102270.13;5013642;28;20274;-74
2023/05/18 05:44:44;;;;;;;11.00;4.43;;;6.20;99.90;;;5.37;75.65;102272.72;5013572;28;20201;-74
2023/05/18 05:47:18;;;;;;;6.20;4.10;;;6.20;99.90;;;5.44;75.60;102278.53;5013408;28;20199;-75
2023/05/18 05:49:51;;;;;;;9.70;4.00;;;6.30;99.90;;;5.49;74.51;102271.97;5014000;28;20191;-75
2023/05/18 05:52:27;;;;;;;10.50;4.03;;;6.30;99.90;;;5.53;75.14;102281.47;5014376;28;20196;-75
2023/05/18 05:55:01;;;;;;;12.00;4.83;;;6.40;99.90;;;5.58;75.02;102279.41;5015377;28;20199;-75
2023/05/18 05:57:34;;;;;;;8.00;4.20;;;6.40;99.90;;;5.63;74.46;102282.66;5014876;28;20641;-75
2023/05/18 06:00:13;;;;;;;10.90;5.13;;;6.50;99.90;;;5.70;73.96;102288.44;5015123;28;20884;-74
2023/05/18 06:02:46;;;;;;;11.47;4.50;;;6.50;99.90;;;5.76;74.16;102287.22;5016400;28;20561;-74
2023/05/18 06:05:20;;;;;;;8.87;4.63;;;6.60;99.90;;;5.81;73.75;102290.47;5013906;28;20238;-74
2023/05/18 06:07:54;;;;;;;8.20;4.30;;;6.70;99.90;;;5.87;73.69;102282.16;5013238;28;20254;-74
2023/05/18 06:10:28;;;;;;;10.07;4.40;;;6.70;99.90;;;5.92;72.98;102293.38;5013096;28;20231;-75
2023/05/18 06:13:01;;;;;;;14.53;4.87;;;6.80;99.90;;;6.00;72.52;102291.09;5012906;28;20192;-75
2023/05/18 06:15:36;;;;;;;9.60;3.90;;;6.90;99.70;;;6.08;71.64;102289.69;5013131;28;20188;-74
2023/05/18 06:18:11;;;;;;;12.10;4.10;;;6.90;99.20;;;6.16;70.76;102293.69;5013041;28;20210;-75
2023/05/18 06:20:46;;;;;;;8.87;4.20;;;7.00;98.80;;;6.25;70.03;102296.63;5016139;28;20647;-74
2023/05/18 06:23:21;;;;;;;7.73;4.40;;;7.10;98.50;;;6.32;69.97;102292.63;5016740;28;20223;-74
2023/05/18 06:25:55;;;;;;;12.40;4.33;;;7.20;98.40;;;6.37;69.26;102295.84;5016697;28;20192;-74
2023/05/18 06:28:29;;;;;;;8.73;3.87;;;7.20;97.80;;;6.48;67.89;102293.38;5017323;28;20278;-74
2023/05/18 06:31:02;;;;;;;10.20;3.97;;;7.30;97.30;;;6.55;67.67;102288.53;5017060;28;20314;-75
2023/05/18 06:33:37;;;;;;;9.20;4.27;;;7.40;97.20;;;6.62;70.00;102303.16;5016378;28;20314;-75
2023/05/18 06:36:11;;;;;;;8.87;4.43;;;7.50;98.10;;;6.68;68.78;102299.28;5016899;28;20192;-74
2023/05/18 06:38:44;;;;;;;8.73;4.10;;;7.50;97.70;;;6.73;69.93;102298.00;5016586;28;20223;-75
2023/05/18 06:41:17;;;;;;;10.77;4.40;;;7.60;98.10;;;6.87;67.27;102299.78;5016345;28;20695;-74
2023/05/18 06:43:51;;;;;;;7.70;4.50;;;7.80;96.90;;;6.95;66.59;102297.50;5016759;28;20238;-74
2023/05/18 06:46:25;;;;;;;8.37;4.67;;;7.80;96.50;;;7.03;65.74;102298.69;5016518;28;20357;-75
2023/05/18 06:48:58;;;;;;;7.67;3.77;;;7.90;96.20;;;7.13;64.32;102298.94;5016569;28;20183;-75
2023/05/18 06:51:32;;;;;;;12.70;4.57;;;8.00;95.50;;;7.15;65.19;102305.03;5015936;28;20641;-74
2023/05/18 06:54:05;;;;;;;12.67;4.67;;;8.00;95.90;;;7.24;64.47;102293.78;5016533;28;20219;-74
2023/05/18 06:56:39;;;;;;;8.57;4.17;;;8.10;95.70;;;7.27;64.67;102306.91;5016211;28;20192;-75
2023/05/18 06:59:12;;;;;;;12.63;4.80;;;8.10;95.60;;;7.34;63.38;102305.53;5015942;28;20290;-74
2023/05/18 07:01:46;;;;;;;10.90;4.73;;;8.20;95.10;;;7.48;62.96;102300.16;5015499;28;20722;-74
2023/05/18 07:04:19;;;;;;;15.37;5.90;;;8.30;94.90;;;7.50;64.04;102298.22;5016069;28;20192;-76
2023/05/18 07:06:54;;;;;;;8.03;4.23;;;8.30;95.20;;;7.64;62.32;102298.16;5016391;28;20275;-74
2023/05/18 07:09:28;;;;;;;10.17;4.30;;;8.50;94.20;;;7.65;61.49;102305.19;5016220;28;20286;-75
2023/05/18 07:12:02;;;;;;;9.23;4.33;;;8.50;93.80;;;7.70;62.07;102299.56;5015722;28;20609;-75
2023/05/18 07:14:35;;;;;;;11.13;4.47;;;8.50;93.90;;;7.77;61.92;102302.66;5015614;28;20678;-75
2023/05/18 07:17:09;;;;;;;12.97;7.03;;;8.60;93.60;;;7.80;63.20;102299.78;5015817;28;20283;-75
2023/05/18 07:19:42;;;;;;;7.30;3.87;;;8.70;94.60;;;7.89;61.57;102308.00;5016057;28;20188;-75
2023/05/18 07:22:16;;;;;;;8.33;4.37;;;8.80;94.20;;;7.98;62.43;102301.22;5015892;28;20274;-76
2023/05/18 07:24:49;;;;;;;11.83;5.13;;;8.80;94.20;;;8.02;63.63;102306.19;5016578;28;20192;-75
2023/05/18 07:27:23;;;;;;;12.17;5.03;;;8.80;94.80;;;8.15;62.51;102308.88;5016005;28;20278;-75
2023/05/18 07:29:56;;;;;;;10.03;4.70;;;8.90;94.30;;;8.27;60.79;102301.81;5015447;28;20250;-75
2023/05/18 07:32:29;;;;;;;8.37;4.37;;;9.10;93.60;;;8.28;62.81;102304.44;5015509;28;20223;-75
2023/05/18 07:35:03;;;;;;;10.43;4.90;;;9.10;94.30;;;8.36;62.39;102315.41;5015787;28;20196;-75
2023/05/18 07:37:37;;;;;;;9.23;5.10;;;9.20;93.70;;;8.50;59.96;102309.94;5015548;28;20615;-75
2023/05/18 07:40:13;;;;;;;8.67;4.10;;;9.30;92.90;;;8.58;60.59;102318.28;5015715;28;20231;-75
2023/05/18 07:42:47;;;;;;;8.87;4.47;;;9.40;93.70;;;8.69;60.65;102308.66;5015553;28;20204;-75
2023/05/18 07:45:20;;;;;;;9.17;4.37;;;9.50;93.80;;;8.78;60.51;102308.84;5015536;28;20196;-74
2023/05/18 07:47:54;;;;;;;9.00;4.47;;;9.60;92.70;;;8.81;59.70;102310.44;5015386;28;20196;-75
2023/05/18 07:50:28;;;;;;;10.23;4.10;;;9.60;93.00;;;8.81;61.35;102305.09;5014989;28;20638;-75
2023/05/18 07:53:01;;;;;;;8.80;4.90;;;9.60;93.50;;;8.89;58.93;102308.06;5015328;28;20192;-75
2023/05/18 07:55:35;;;;;;;7.50;4.23;;;9.70;92.50;;;8.89;61.02;102306.25;5015229;28;20195;-74
2023/05/18 07:58:08;;;;;;;9.30;4.33;;;9.70;92.90;;;8.96;60.32;102306.66;5015174;28;20282;-75
2023/05/18 08:00:43;;;;;;;12.27;4.77;;;9.80;93.30;;;9.04;60.55;102307.78;5015330;28;20327;-75
2023/05/18 08:03:16;;;;;;;11.73;4.73;;;9.90;92.50;;;9.18;59.05;102301.41;5014712;28;20528;-75
2023/05/18 08:05:50;;;;;;;8.50;3.80;;;10.00;92.40;;;9.34;59.18;102302.00;5014965;28;20207;-75
2023/05/18 08:08:23;;;;;;;9.83;4.40;;;10.10;92.70;;;9.42;59.24;102304.09;5014911;28;20191;-75
2023/05/18 08:10:56;;;;;;;7.73;3.87;;;10.30;92.30;;;9.47;58.33;102297.44;5014721;28;20223;-75
2023/05/18 08:13:30;;;;;;;13.20;4.80;;;10.30;91.50;;;9.54;56.83;102304.03;5014773;28;20196;-75
2023/05/18 08:16:06;;;;;;;7.77;3.97;;;10.30;91.00;;;9.64;60.36;102304.19;5014746;28;20199;-75
2023/05/18 08:18:45;;;;;;;8.90;3.90;;;10.40;92.60;;;9.76;58.20;102303.25;5014694;28;20202;-75
2023/05/18 08:21:18;;;;;;;7.40;4.43;;;10.60;91.80;;;9.83;59.68;102298.31;5014612;28;20630;-74
2023/05/18 08:23:51;;;;;;;6.57;3.60;;;10.60;92.30;;;9.84;59.08;102302.66;5014810;28;20281;-74
2023/05/18 08:26:26;;;;;;;7.50;4.00;;;10.60;91.90;;;9.93;57.90;102296.63;5015011;28;20216;-75
2023/05/18 08:28:59;;;;;;;10.63;4.77;;;10.70;91.40;;;10.04;55.43;102299.31;5014411;28;20639;-75
2023/05/18 08:31:32;;;;;;;9.40;4.43;;;10.80;90.30;;;10.12;58.72;102288.88;5014240;28;20763;-74
2023/05/18 08:34:07;;;;;;;11.90;4.30;;;10.90;91.80;;;10.24;56.42;102298.63;5015066;28;20219;-74
2023/05/18 08:36:44;;;;;;;5.07;3.60;;;11.00;90.60;;;10.22;57.46;102287.19;5017447;28;20277;-74
2023/05/18 08:39:17;;;;;;;11.70;4.23;;;11.00;91.20;;;10.17;56.41;102286.72;5018863;28;20207;-74
2023/05/18 08:42:01;;;;;;;11.63;4.50;;;10.90;90.30;;;10.15;54.48;102284.16;5016865;28;20277;-75
2023/05/18 08:44:50;;;;;;;7.40;3.97;;;10.90;89.40;;;10.26;58.18;102282.47;5018849;28;20581;-73
2023/05/18 08:47:26;;;;;;;11.20;4.67;;;11.00;91.00;;;10.41;54.90;102283.94;5016367;28;20282;-74
2023/05/18 08:50:02;;;;;;;16.30;8.30;;;11.10;89.70;;;10.48;54.20;102275.28;5013820;28;20695;-74
2023/05/18 08:52:47;;;;;;;9.20;4.50;;;11.20;89.30;;;10.51;53.39;102269.66;5014247;28;20195;-75
2023/05/18 08:55:22;;;;;;;9.00;4.37;;;11.30;88.30;;;10.79;54.56;102267.47;5014103;28;20287;-75
2023/05/18 08:58:02;;;;;;;10.97;4.50;;;11.50;89.10;;;10.84;54.62;102275.97;5014013;28;20203;-74
2023/05/18 09:00:37;;;;;;;11.23;4.63;;;11.60;88.60;;;11.08;54.02;102265.94;5013840;28;20273;-75
2023/05/18 09:03:11;;;;;;;9.60;4.40;;;11.80;88.20;;;11.12;54.29;102270.06;5014172;28;20234;-75
2023/05/18 09:05:46;;;;;;;10.43;4.70;;;11.90;88.40;;;11.19;53.87;102281.97;5013951;28;20195;-75
2023/05/18 09:08:20;;;;;;;11.67;4.23;;;11.90;88.20;;;11.22;54.88;102279.03;5013570;28;20186;-74
2023/05/18 09:10:56;;;;;;;8.67;4.87;;;11.90;87.90;;;11.18;52.22;102272.22;5014237;28;20595;-76
2023/05/18 09:13:31;;;;;;;9.40;4.23;;;11.90;85.70;;;11.24;53.89;102274.41;5013547;28;20632;-75
2023/05/18 09:16:04;;;;;;;9.23;3.47;;;11.90;87.10;;;11.27;54.64;102279.50;5013853;28;20210;-74
2023/05/18 09:18:38;;;;;;;8.70;3.43;;;11.90;87.50;;;11.29;55.51;102276.72;5013575;28;20633;-75
2023/05/18 09:21:11;;;;;;;10.27;4.00;;;12.00;89.10;;;11.27;51.92;102276.81;5013706;28;20764;-75
2023/05/18 09:23:47;;;;;;;8.80;4.17;;;12.00;85.30;;;11.29;51.57;102271.34;5013976;28;20195;-75
2023/05/18 09:26:21;;;;;;;7.97;3.97;;;12.00;84.90;;;11.33;53.78;102268.28;5013808;28;20230;-73
2023/05/18 09:28:58;;;;;;;9.50;4.73;;;12.00;86.80;;;11.31;53.22;102267.53;5013590;28;20715;-74
2023/05/18 09:31:34;;;;;;;12.93;4.77;;;12.00;85.90;;;11.44;52.36;102268.22;5013315;28;20635;-74
2023/05/18 09:34:08;;;;;;;12.27;4.83;;;12.10;85.00;;;11.61;50.74;102267.66;5013818;28;20221;-63
2023/05/18 09:36:45;;;;;;;11.13;4.57;;;12.30;83.90;;;11.67;51.99;102261.78;5013396;28;20219;-72
2023/05/18 09:39:19;;;;;;;7.00;3.47;;;12.40;84.30;;;11.83;53.70;102260.50;5013605;28;20215;-74
2023/05/18 09:41:58;;;;;;;8.57;3.70;;;12.50;85.30;;;12.00;51.63;102254.53;5013302;28;20227;-72
2023/05/18 09:44:37;;;;;;;10.50;4.13;;;12.70;84.70;;;12.10;50.13;102263.47;5013490;28;20223;-74
2023/05/18 09:47:13;;;;;;;10.13;4.37;;;12.80;82.30;;;12.26;49.01;102263.00;5013066;28;20198;-74
2023/05/18 09:49:47;;;;;;;9.87;4.37;;;12.50;80.60;;;12.27;47.87;102253.94;5013505;28;20245;-74
2023/05/18 09:52:21;;;;;;;10.27;3.80;;;12.90;79.70;;;12.33;50.37;102265.00;5013066;28;20226;-74
2023/05/18 09:55:04;;;;;;;12.87;4.17;;;12.90;81.40;;;12.47;48.59;102256.56;5017265;28;20223;-74
2023/05/18 09:57:44;;;;;;;12.50;5.00;;;13.20;80.60;;;12.61;49.57;102252.66;5017148;28;20278;-74
2023/05/18 10:00:21;;;;;;;12.60;4.60;;;13.30;80.80;;;12.67;48.68;102252.97;5017050;28;20255;-73
2023/05/18 10:02:59;;;;;;;6.80;3.53;;;13.30;79.60;;;12.83;49.83;102259.66;5017365;28;20256;-73
2023/05/18 10:05:33;;;;;;;11.43;3.63;;;13.50;79.20;;;13.04;45.86;102255.03;5017018;28;20191;-73
2023/05/18 10:08:11;;;;;;;7.67;3.40;;;13.70;76.20;;;13.13;48.08;102251.53;5016880;28;20217;-73
2023/05/18 10:10:49;;;;;;;9.17;3.77;;;13.80;78.20;;;13.12;46.29;102252.50;5017179;28;20239;-73
2023/05/18 10:13:25;;;;;;;12.13;3.93;;;13.80;77.00;;;12.99;45.75;102250.06;5016912;28;20184;-73
2023/05/18 10:16:02;;;;;;;7.53;3.70;;;13.60;74.40;;;13.12;48.40;102244.44;5016495;28;20675;-74
2023/05/18 10:18:40;;;;;;;9.83;3.70;;;13.70;78.40;;;13.28;47.34;102247.44;5016782;28;20233;-74
2023/05/18 10:21:17;;;;;;;9.50;3.80;;;13.80;76.70;;;13.22;44.59;102241.78;5016595;28;20227;-74
2023/05/18 10:23:53;;;;;;;8.50;3.50;;;13.90;72.40;;;13.36;47.21;102244.88;5016654;28;20214;-73
2023/05/18 10:26:31;;;;;;;7.57;3.50;;;14.00;76.10;;;13.40;47.75;102240.91;5016653;28;20249;-74
2023/05/18 10:29:04;;;;;;;10.87;3.67;;;14.00;76.20;;;13.63;46.67;102247.69;5016562;28;20194;-73
2023/05/18 10:31:41;;;;;;;9.27;3.63;;;14.20;76.80;;;13.77;45.73;102242.88;5016456;28;20231;-74
2023/05/18 10:34:17;;;;;;;9.60;3.83;;;14.40;74.10;;;13.98;45.04;102248.91;5016083;28;20626;-74
2023/05/18 10:36:51;;;;;;;8.90;3.80;;;14.50;73.60;;;14.03;45.87;102249.31;5016399;28;20283;-74
2023/05/18 10:39:26;;;;;;;9.33;3.40;;;14.60;75.00;;;14.10;45.35;102245.06;5016366;28;20203;-74
2023/05/18 10:42:04;;;;;;;10.30;3.90;;;14.60;74.40;;;14.13;45.75;102239.38;5016160;28;20231;-73
2023/05/18 10:44:40;;;;;;;10.40;3.80;;;14.70;74.00;;;14.18;44.43;102234.38;5016313;28;20199;-73
2023/05/18 10:47:16;;;;;;;7.50;3.57;;;14.70;73.00;;;14.15;43.38;102231.97;5016233;28;20254;-73
2023/05/18 10:49:51;;;;;;;9.30;3.27;;;14.60;70.50;;;14.32;45.45;102227.66;5016059;28;20195;-73
2023/05/18 10:52:30;;;;;;;7.90;3.47;;;14.80;73.90;;;14.44;46.02;102226.50;5016147;28;20192;-73